NE64 weather

Hershey Flying Service Field Airport
Hershey, Nebraska, United States

Public forecast

Using degrees Fahrenheit for public forecast. Weather courtesy of forecast.io.

Closest aviation weather report (METAR) to Hershey Flying Service Field Airport

Closest report is North Platte Regional Airport Lee Bird Field, 13.5 nm (25.0 km) E. Retrieved 2019/10/14 23:53 UTC (42 minutes ago):

KLBF 142353Z AUTO 33005KT 10SM CLR 16/M02 A2977 RMK AO2 SLP087 T01561017 10267 20156 53005

Closest aviation forecast (TAF) to Hershey Flying Service Field Airport

Closest forecast is North Platte Regional Airport Lee Bird Field, 13.5 nm (25.0 km) E. Retrieved 2019-10-15 00:22 UTC (13 minutes ago):

TAF KLBF 142320Z 1500/1524 35010KT P6SM SCT200 FM151500 33014G22KT P6SM SKC FM151800 33020G28KT P6SM SKC